createdAt,value
2019-04-11T09:27:22.720Z,36.11
2019-04-11T09:28:22.665Z,36.11
2019-04-11T09:29:22.638Z,36.11
2019-04-11T09:30:23.062Z,36.01
2019-04-11T09:31:22.603Z,35.91
2019-04-11T09:32:22.580Z,35.71
2019-04-11T09:33:22.748Z,35.61
2019-04-11T09:34:23.783Z,36.71
2019-04-11T09:35:22.458Z,36.61
2019-04-11T09:36:22.432Z,36.51
2019-04-11T09:37:23.137Z,35.61
2019-04-11T09:38:24.323Z,36.41
2019-04-11T09:39:23.409Z,35.61
2019-04-11T09:40:23.950Z,35.61
2019-04-11T09:41:23.088Z,36.99
2019-04-11T09:42:23.164Z,36.91
2019-04-11T09:43:24.120Z,36.61
2019-04-11T09:44:22.971Z,37.21
2019-04-11T09:45:23.696Z,36.60
2019-04-11T09:46:24.002Z,33.41
2019-04-11T09:47:32.861Z,28.35
2019-04-11T09:48:33.684Z,32.09
2019-04-11T09:49:33.128Z,34.39
2019-04-11T09:50:32.762Z,33.98
2019-04-11T09:51:33.774Z,33.67
2019-04-11T09:52:33.183Z,34.17
2019-04-11T09:53:32.674Z,34.58
2019-04-11T09:54:33.917Z,34.16
2019-04-11T09:55:33.195Z,33.86
2019-04-11T09:56:33.297Z,34.66
2019-04-11T09:57:32.565Z,34.05
2019-04-11T09:58:33.655Z,34.55
2019-04-11T09:59:33.459Z,33.94
2019-04-11T10:00:32.458Z,34.55
2019-04-11T10:01:33.026Z,35.25
2019-04-11T10:02:33.331Z,34.74
2019-04-11T10:03:32.327Z,35.05
2019-04-11T10:04:32.289Z,35.14
2019-04-11T10:05:32.248Z,35.13
2019-04-11T10:06:32.406Z,35.44
2019-04-11T10:07:33.464Z,34.83
2019-04-11T10:08:33.074Z,35.53
2019-04-11T10:09:32.374Z,35.35
2019-04-11T10:10:33.088Z,36.33
2019-04-11T10:11:32.524Z,35.23
2019-04-11T10:12:32.049Z,35.43
2019-04-11T10:13:35.581Z,35.13
2019-04-11T10:14:34.779Z,35.43
2019-04-11T10:15:35.567Z,35.21
2019-04-11T10:16:35.905Z,36.13
2019-04-11T10:17:35.941Z,35.43
2019-04-11T10:18:38.764Z,36.03
2019-04-11T10:19:36.059Z,35.93
2019-04-11T10:20:35.007Z,36.13
2019-04-11T10:21:34.789Z,35.93
2019-04-11T10:22:34.760Z,35.43
2019-04-11T10:23:45.146Z,35.63
2019-04-11T10:24:44.761Z,36.63
2019-04-11T10:25:45.542Z,37.03
2019-04-11T10:26:44.779Z,36.63
2019-04-11T10:27:44.824Z,36.83
2019-04-11T10:28:45.943Z,37.33
2019-04-11T10:29:44.774Z,37.23
2019-04-11T10:30:46.027Z,37.03
2019-04-11T10:31:44.774Z,37.13
2019-04-11T10:32:45.562Z,36.83
2019-04-11T10:33:44.911Z,37.23
2019-04-11T10:34:45.825Z,37.63
2019-04-11T10:35:44.768Z,37.55
2019-04-11T10:36:45.328Z,37.33
2019-04-11T10:37:44.771Z,37.63
2019-04-11T10:38:44.794Z,37.55
2019-04-11T10:39:45.837Z,37.23
2019-04-11T10:40:45.122Z,37.23
2019-04-11T10:41:46.142Z,37.33
2019-04-11T10:42:44.837Z,37.33
2019-04-11T10:43:44.830Z,37.33
2019-04-11T10:44:45.746Z,37.73
2019-04-11T10:45:44.893Z,37.93
2019-04-11T10:46:44.845Z,37.75
2019-04-11T10:47:45.046Z,37.53
2019-04-11T10:48:46.962Z,37.63
2019-04-11T10:49:44.868Z,38.05
2019-04-11T10:50:44.854Z,37.73
2019-04-11T10:51:45.647Z,37.73
2019-04-11T10:52:44.904Z,37.65
2019-04-11T10:53:44.884Z,37.73
2019-04-11T10:54:45.076Z,38.13
2019-04-11T10:55:46.076Z,38.23
2019-04-11T10:56:44.886Z,38.53
2019-04-11T10:57:44.891Z,38.03
2019-04-11T10:58:44.890Z,38.25
2019-04-11T10:59:45.017Z,38.15
2019-04-11T11:00:45.272Z,37.95
2019-04-11T11:01:44.886Z,38.03
2019-04-11T11:02:45.288Z,37.95
2019-04-11T11:03:45.203Z,38.95
2019-04-11T11:04:45.143Z,38.45
2019-04-11T11:05:45.079Z,38.45
2019-04-11T11:06:45.407Z,38.85
2019-04-11T11:07:44.907Z,38.15
2019-04-11T11:08:45.822Z,38.15
2019-04-11T11:09:46.200Z,39.15
2019-04-11T11:10:45.887Z,39.25
2019-04-11T11:11:44.915Z,37.85
2019-04-11T11:12:45.494Z,39.35
2019-04-11T11:13:45.877Z,38.95
2019-04-11T11:14:45.062Z,38.95
2019-04-11T11:15:44.925Z,38.95
2019-04-11T11:16:45.582Z,39.15
2019-04-11T11:18:12.662Z,39.25
2019-04-11T11:19:15.639Z,39.25
2019-04-11T11:19:59.301Z,39.33
2019-04-11T11:20:53.940Z,39.05
2019-04-11T11:21:47.061Z,39.33
2019-04-11T11:22:46.112Z,38.95
2019-04-11T11:23:45.095Z,39.13
2019-04-11T11:24:46.302Z,39.45
2019-04-11T11:25:48.487Z,39.33
2019-04-11T11:26:44.931Z,39.05
2019-04-11T11:27:45.836Z,38.65
2019-04-11T11:28:44.945Z,38.75
2019-04-11T11:29:45.369Z,38.65
2019-04-11T11:30:44.952Z,38.55
2019-04-11T11:31:46.361Z,38.45
2019-04-11T11:32:45.342Z,38.75
2019-04-11T11:33:45.027Z,38.75
2019-04-11T11:34:49.265Z,38.65
2019-04-11T11:35:45.958Z,39.03
2019-04-11T11:36:45.743Z,38.95
2019-04-11T11:37:45.237Z,38.95
2019-04-11T11:38:46.041Z,38.95
2019-04-11T11:39:44.993Z,38.95
2019-04-11T11:40:45.009Z,38.93
2019-04-11T11:41:44.954Z,39.05
2019-04-11T11:42:46.031Z,38.95
2019-04-11T11:43:45.396Z,38.75
2019-04-11T11:44:44.954Z,38.95
2019-04-11T11:45:49.143Z,38.85
2019-04-11T11:46:46.602Z,38.75
2019-04-11T11:47:44.953Z,39.25
2019-04-11T11:48:48.766Z,39.45
2019-04-11T11:49:55.589Z,38.65
2019-04-11T11:50:49.038Z,39.15
2019-04-11T11:51:45.727Z,39.65
2019-04-11T11:52:45.525Z,39.15
2019-04-11T11:53:44.959Z,39.55
2019-04-11T11:54:45.978Z,39.05
2019-04-11T11:55:45.418Z,39.25
2019-04-11T11:56:44.967Z,39.75
2019-04-11T11:57:44.989Z,39.15
2019-04-11T11:58:48.783Z,39.35
2019-04-11T11:59:45.997Z,39.17
2019-04-11T12:00:46.355Z,39.25
2019-04-11T12:01:48.004Z,39.27
2019-04-11T12:02:44.990Z,38.67
2019-04-11T12:03:45.012Z,38.85
2019-04-11T12:04:45.009Z,39.07
2019-04-11T12:05:48.335Z,38.77
2019-04-11T12:06:48.202Z,39.07
2019-04-11T12:07:45.224Z,39.57
2019-04-11T12:08:46.595Z,39.77
2019-04-11T12:09:45.010Z,39.57
2019-04-11T12:10:45.888Z,39.87
2019-04-11T12:11:45.021Z,39.65
2019-04-11T12:12:46.310Z,39.87
2019-04-11T12:13:45.502Z,39.77
2019-04-11T12:14:46.386Z,39.77
2019-04-11T12:15:45.607Z,39.77
2019-04-11T12:16:45.058Z,39.67
2019-04-11T12:17:45.077Z,39.05
2019-04-11T12:18:49.774Z,38.95
2019-04-11T12:19:52.961Z,38.55
2019-04-11T12:20:47.612Z,39.05
2019-04-11T12:21:48.586Z,39.27
2019-04-11T12:22:45.333Z,39.27
2019-04-11T12:23:54.513Z,38.95
2019-04-11T12:24:46.127Z,38.67
2019-04-11T12:25:45.211Z,39.17
2019-04-11T12:26:46.198Z,39.37
2019-04-11T12:27:45.762Z,39.17
2019-04-11T12:28:45.779Z,39.17
2019-04-11T12:29:48.805Z,39.77
2019-04-11T12:30:46.273Z,39.67
2019-04-11T12:31:46.058Z,39.87
2019-04-11T12:32:45.153Z,39.77
2019-04-11T12:33:45.740Z,39.55
2019-04-11T12:34:45.228Z,39.55
2019-04-11T12:35:46.443Z,39.75
2019-04-11T12:36:50.105Z,39.85
2019-04-11T12:37:50.349Z,39.65
2019-04-11T12:38:46.224Z,39.75
2019-04-11T12:39:45.202Z,39.77
2019-04-11T12:40:45.207Z,39.55
2019-04-11T12:41:45.210Z,39.85
2019-04-11T12:42:45.219Z,39.55
2019-04-11T12:43:45.258Z,39.65
2019-04-11T12:44:45.242Z,39.65
2019-04-11T12:45:45.237Z,39.65
2019-04-11T12:46:45.244Z,39.65
2019-04-11T12:47:45.251Z,39.85
2019-04-11T12:48:45.298Z,39.75
2019-04-11T12:49:52.766Z,39.75
2019-04-11T12:50:46.269Z,39.75
2019-04-11T12:51:45.277Z,39.75
2019-04-11T12:52:45.276Z,39.85
2019-04-11T12:53:45.272Z,39.55
2019-04-11T12:54:45.272Z,39.85
2019-04-11T12:55:45.277Z,39.65
2019-04-11T12:56:45.287Z,39.75
2019-04-11T12:57:45.279Z,39.55
2019-04-11T12:58:45.283Z,39.75
2019-04-11T12:59:45.291Z,39.95
2019-04-11T13:00:45.296Z,39.65
2019-04-11T13:01:45.342Z,39.65
2019-04-11T13:02:46.382Z,39.45
2019-04-11T13:03:45.296Z,40.05
2019-04-11T13:04:45.359Z,39.55
2019-04-11T13:05:45.311Z,40.05
2019-04-11T13:06:45.307Z,40.15
2019-04-11T13:07:45.298Z,39.65
2019-04-11T13:08:45.308Z,40.25
2019-04-11T13:09:46.113Z,40.15
2019-04-11T13:10:45.337Z,40.45
2019-04-11T13:11:45.320Z,40.25
2019-04-11T13:12:45.318Z,39.95
2019-04-11T13:13:45.330Z,40.25
2019-04-11T13:14:45.436Z,40.35
2019-04-11T13:15:45.335Z,40.15
2019-04-11T13:16:45.376Z,39.85
2019-04-11T13:17:45.338Z,40.45
2019-04-11T13:18:45.349Z,40.07
2019-04-11T13:19:45.369Z,39.95
2019-04-11T13:20:45.402Z,40.35
2019-04-11T13:21:45.365Z,40.05
2019-04-11T13:22:45.390Z,40.45
2019-04-11T13:23:45.393Z,40.15
2019-04-11T13:24:45.404Z,40.45
2019-04-11T13:25:45.615Z,40.15
2019-04-11T13:26:45.397Z,40.15
2019-04-11T13:27:45.406Z,40.17
2019-04-11T13:28:45.406Z,40.45
2019-04-11T13:29:45.436Z,40.27
2019-04-11T13:30:45.446Z,40.15
2019-04-11T13:31:45.418Z,40.17
2019-04-11T13:32:45.416Z,40.15
2019-04-11T13:33:45.421Z,40.05
2019-04-11T13:34:45.438Z,40.15
2019-04-11T13:35:45.439Z,40.55
2019-04-11T13:36:45.441Z,40.37
2019-04-11T13:37:45.446Z,40.35
2019-04-11T13:38:45.470Z,40.35
2019-04-11T13:39:46.651Z,40.35
2019-04-11T13:40:45.479Z,40.27
2019-04-11T13:41:45.504Z,40.15
2019-04-11T13:42:45.482Z,39.95
2019-04-11T13:43:45.512Z,40.45
2019-04-11T13:44:45.510Z,40.25
2019-04-11T13:45:45.530Z,40.57
2019-04-11T13:46:45.507Z,40.17
2019-04-11T13:47:45.507Z,40.45
2019-04-11T13:48:45.517Z,40.35
2019-04-11T13:49:45.522Z,40.35
2019-04-11T13:50:45.523Z,40.15
2019-04-11T13:51:45.527Z,40.45
2019-04-11T13:52:45.534Z,40.57
2019-04-11T13:53:45.547Z,40.45
2019-04-11T13:54:45.561Z,40.27
2019-04-11T13:55:45.594Z,40.25
2019-04-11T13:56:45.572Z,40.47
2019-04-11T13:57:45.607Z,40.65
2019-04-11T13:58:45.590Z,40.17
2019-04-11T13:59:45.617Z,40.27
2019-04-11T14:00:45.665Z,40.45
2019-04-11T14:01:45.610Z,40.17
2019-04-11T14:02:50.960Z,40.17
2019-04-11T14:03:46.626Z,40.47
2019-04-11T14:04:45.629Z,40.17
2019-04-11T14:05:45.639Z,40.25
2019-04-11T14:06:45.631Z,40.45
2019-04-11T14:07:45.633Z,40.75
2019-04-11T14:08:45.647Z,40.27
2019-04-11T14:09:45.640Z,40.67
2019-04-11T14:10:45.663Z,40.25
2019-04-11T14:11:45.642Z,40.45
2019-04-11T14:12:45.659Z,40.27
2019-04-11T14:13:45.664Z,40.17
2019-04-11T14:14:45.653Z,40.17
2019-04-11T14:15:45.693Z,40.27
2019-04-11T14:16:45.672Z,40.17
2019-04-11T14:17:45.671Z,40.45
2019-04-11T14:18:45.673Z,40.55
2019-04-11T14:19:45.680Z,40.55
2019-04-11T14:20:45.673Z,40.45
2019-04-11T14:21:45.703Z,40.25
2019-04-11T14:22:45.680Z,40.45
2019-04-11T14:23:45.693Z,40.47
2019-04-11T14:24:45.695Z,40.55
2019-04-11T14:25:45.697Z,40.75
2019-04-11T14:26:45.749Z,40.37
2019-04-11T14:27:45.731Z,40.37
2019-04-11T14:28:45.749Z,40.47
2019-04-11T14:29:45.721Z,40.37
2019-04-11T14:30:46.722Z,40.47
2019-04-11T14:31:45.734Z,40.87
2019-04-11T14:32:45.732Z,40.57
2019-04-11T14:33:45.754Z,40.75
2019-04-11T14:34:45.756Z,40.77
2019-04-11T14:35:45.749Z,40.77
2019-04-11T14:36:45.756Z,40.97
2019-04-11T14:37:45.754Z,40.87
2019-04-11T14:38:50.663Z,40.67
2019-04-11T14:39:46.779Z,40.47
2019-04-11T14:40:45.777Z,41.27
2019-04-11T14:41:45.797Z,40.47
2019-04-11T14:42:46.292Z,40.67
2019-04-11T14:43:46.000Z,40.77
2019-04-11T14:44:45.808Z,40.87
2019-04-11T14:45:45.813Z,40.77
2019-04-11T14:46:45.841Z,40.77
2019-04-11T14:47:45.860Z,40.77
2019-04-11T14:48:45.845Z,40.77
2019-04-11T14:49:45.878Z,40.77
2019-04-11T14:50:45.888Z,40.77
2019-04-11T14:51:46.280Z,40.67
2019-04-11T14:52:46.685Z,40.87
2019-04-11T14:53:46.630Z,40.77
2019-04-11T14:54:48.926Z,40.87
2019-04-11T14:55:46.722Z,40.67
2019-04-11T14:56:47.782Z,40.57
2019-04-11T14:57:46.922Z,40.77
2019-04-11T14:58:45.929Z,40.77
2019-04-11T14:59:45.936Z,40.67
2019-04-11T15:00:45.952Z,40.77
2019-04-11T15:01:45.976Z,40.87
2019-04-11T15:02:45.992Z,40.77
2019-04-11T15:03:45.992Z,40.87
2019-04-11T15:04:45.999Z,40.57
2019-04-11T15:05:46.012Z,40.97
2019-04-11T15:06:46.018Z,40.77
2019-04-11T15:07:46.718Z,40.77
2019-04-11T15:08:47.665Z,40.87
2019-04-11T15:09:46.768Z,40.87
2019-04-11T15:10:48.212Z,40.87
2019-04-11T15:11:47.135Z,40.87
2019-04-11T15:12:48.155Z,40.87
2019-04-11T15:13:48.094Z,40.87
2019-04-11T15:14:49.471Z,40.79
2019-04-11T15:15:47.117Z,40.67
2019-04-11T15:16:46.339Z,41.27
2019-04-11T15:17:46.142Z,40.99
2019-04-11T15:18:46.149Z,40.89
2019-04-11T15:19:46.163Z,40.87
2019-04-11T15:20:54.888Z,40.97
2019-04-11T15:21:47.176Z,41.07
2019-04-11T15:22:46.198Z,40.07
2019-04-11T15:23:46.202Z,40.47
2019-04-11T15:24:46.222Z,40.35
2019-04-11T15:25:46.226Z,39.17
2019-04-11T15:26:46.236Z,39.17
2019-04-11T15:27:46.250Z,39.27
2019-04-11T15:28:46.257Z,38.87
2019-04-11T15:29:46.603Z,38.97
2019-04-11T15:30:49.407Z,38.87
2019-04-11T15:31:46.301Z,39.27
2019-04-11T15:32:46.337Z,39.27
2019-04-11T15:33:46.322Z,39.47
2019-04-11T15:34:46.339Z,39.37
2019-04-11T15:35:46.356Z,39.37
2019-04-11T15:36:46.354Z,38.37
2019-04-11T15:37:46.370Z,39.07
2019-04-11T15:38:46.374Z,39.77
2019-04-11T15:39:46.391Z,38.87
2019-04-11T15:40:46.393Z,38.67
2019-04-11T15:41:46.404Z,38.77
2019-04-11T15:42:46.419Z,39.67
2019-04-11T15:43:46.417Z,38.75
2019-04-11T15:44:46.454Z,38.55
2019-04-11T15:45:46.849Z,38.95
2019-04-11T15:46:47.941Z,37.95
2019-04-11T15:47:49.300Z,38.15
2019-04-11T15:48:46.464Z,38.45
2019-04-11T15:49:46.735Z,38.65
2019-04-11T15:50:46.476Z,38.55
2019-04-11T15:51:46.472Z,38.65
2019-04-11T15:52:46.480Z,38.85
2019-04-11T15:53:46.485Z,39.05
2019-04-11T15:54:46.472Z,38.45
2019-04-11T15:55:46.478Z,37.85
2019-04-11T15:56:46.486Z,38.17
2019-04-11T15:57:46.502Z,38.37
2019-04-11T15:58:46.498Z,38.17
2019-04-11T15:59:46.567Z,38.05
2019-04-11T16:00:46.509Z,38.45
2019-04-11T16:01:46.538Z,38.15
2019-04-11T16:02:46.520Z,38.45
2019-04-11T16:03:46.515Z,38.55
2019-04-11T16:04:46.514Z,37.96
2019-04-11T16:44:11.953Z,38.27
2019-04-11T16:45:11.930Z,38.27
2019-04-11T16:46:11.882Z,37.98
2019-04-11T16:47:11.824Z,37.68
2019-04-11T16:48:11.764Z,37.88
2019-04-11T16:49:11.712Z,38.37
2019-04-11T16:50:11.652Z,37.77
2019-04-11T16:51:11.581Z,37.57
2019-04-11T16:52:11.534Z,37.46
2019-04-11T16:53:11.742Z,37.87
2019-04-11T16:54:21.372Z,37.18
2019-04-11T16:55:21.321Z,36.68
2019-04-11T16:56:21.236Z,37.28
2019-04-11T16:57:21.163Z,37.28
2019-04-11T16:58:21.086Z,37.07
2019-04-11T16:59:21.019Z,37.08
2019-04-11T17:00:21.263Z,36.68
2019-04-11T17:01:23.151Z,37.16
2019-04-11T17:02:23.867Z,37.68
2019-04-11T17:03:24.773Z,36.88
2019-04-11T17:04:20.631Z,37.48
2019-04-11T17:05:20.567Z,37.27
2019-04-11T17:06:20.474Z,37.68
2019-04-11T17:07:20.395Z,37.46
2019-04-11T17:08:20.317Z,37.79
2019-04-11T17:09:20.232Z,37.98
2019-04-11T17:10:20.173Z,37.38
2019-04-11T17:11:20.076Z,37.98
2019-04-11T17:12:19.991Z,38.09
2019-04-11T17:13:19.911Z,38.09
2019-04-11T17:14:27.969Z,38.09
2019-04-11T17:15:20.785Z,37.98
2019-04-11T17:16:19.674Z,37.79
2019-04-11T17:17:19.585Z,38.59
2019-04-11T17:18:19.503Z,38.29
2019-04-11T17:19:19.417Z,38.39
2019-04-11T17:20:19.328Z,38.39
2019-04-11T17:21:19.307Z,38.29
2019-04-11T17:22:19.478Z,38.49
2019-04-11T17:23:19.086Z,38.49
2019-04-11T17:24:19.003Z,38.39
2019-04-11T17:25:19.848Z,38.39
2019-04-11T17:26:22.920Z,38.17
2019-04-11T17:27:20.999Z,38.18
2019-04-11T17:28:22.775Z,38.29
2019-04-11T17:29:20.287Z,38.09
2019-04-11T17:30:18.497Z,37.98
2019-04-11T17:31:18.411Z,38.89
2019-04-11T17:32:18.312Z,37.88
2019-04-11T17:33:18.229Z,38.68
2019-04-11T17:34:18.139Z,38.18
2019-04-11T17:35:18.073Z,38.27
2019-04-11T17:36:18.009Z,38.68
2019-04-11T17:37:17.896Z,38.68
2019-04-11T17:38:17.810Z,38.68
2019-04-11T17:39:17.731Z,38.99
2019-04-11T17:40:17.646Z,38.09
2019-04-11T17:41:17.584Z,39.29
2019-04-11T17:42:17.483Z,39.29
2019-04-11T17:43:17.396Z,38.59
2019-04-11T17:44:17.319Z,37.88
2019-04-11T17:45:17.238Z,39.29
2019-04-11T17:46:17.179Z,39.09
2019-04-11T17:47:17.155Z,39.18
2019-04-11T17:48:17.077Z,38.99
2019-04-11T17:49:16.995Z,38.89
2019-04-11T17:50:16.910Z,38.89
2019-04-11T17:51:17.011Z,39.29
2019-04-11T17:52:16.755Z,39.79
2019-04-11T17:53:16.674Z,39.69
2019-04-11T17:54:16.596Z,39.89
2019-04-11T17:55:16.519Z,39.59
2019-04-11T17:56:16.432Z,39.89
2019-04-11T17:57:16.383Z,39.49
2019-04-11T17:58:16.271Z,39.49
2019-04-11T17:59:16.189Z,39.79
2019-04-11T18:00:16.109Z,39.79
2019-04-11T18:01:16.031Z,40.19
2019-04-11T18:02:15.969Z,40.29
2019-04-11T18:03:15.872Z,40.09
2019-04-11T18:04:15.811Z,40.29
2019-04-11T18:05:17.134Z,40.39
2019-04-11T18:06:17.118Z,40.39
2019-04-11T18:07:17.587Z,40.29
2019-04-11T18:08:19.746Z,40.29
2019-04-11T18:09:15.416Z,40.39
2019-04-11T18:10:15.357Z,40.29
2019-04-11T18:11:15.266Z,40.29
2019-04-11T18:12:15.222Z,40.39
2019-04-11T18:13:15.121Z,40.51
2019-04-11T18:14:15.050Z,40.19
2019-04-11T18:15:14.981Z,40.39
2019-04-11T18:16:14.897Z,40.39
2019-04-11T18:17:16.489Z,40.29
2019-04-11T18:18:14.747Z,40.29
2019-04-11T18:19:14.656Z,40.39
2019-04-11T18:20:14.582Z,39.99
2019-04-11T18:21:14.509Z,40.49
2019-04-11T18:22:14.450Z,40.51
2019-04-11T18:23:14.377Z,40.39
2019-04-11T18:24:14.311Z,40.49
2019-04-11T18:25:14.223Z,40.91
2019-04-11T18:26:14.145Z,40.19
2019-04-11T18:27:14.072Z,40.59
2019-04-11T18:28:14.022Z,40.39
2019-04-11T18:29:13.935Z,40.49
2019-04-11T18:30:13.857Z,40.81
2019-04-11T18:31:13.789Z,40.69
2019-04-11T18:32:13.714Z,41.39
2019-04-11T18:33:13.663Z,40.79
2019-04-11T18:34:13.573Z,40.91
2019-04-11T18:35:13.497Z,40.79
2019-04-11T18:36:13.419Z,40.99
2019-04-11T18:37:13.345Z,40.89
2019-04-11T18:38:13.282Z,40.69
2019-04-11T18:39:13.193Z,40.69
2019-04-11T18:40:13.119Z,40.89
2019-04-11T18:41:13.783Z,40.79
2019-04-11T18:42:12.970Z,40.69
2019-04-11T18:43:16.002Z,40.59
2019-04-11T18:44:12.841Z,40.79
2019-04-11T18:45:12.745Z,40.79
2019-04-11T18:46:12.668Z,40.89
2019-04-11T18:47:12.590Z,40.69
2019-04-11T18:48:12.538Z,40.99
2019-04-11T18:49:12.440Z,40.89
2019-04-11T18:50:12.359Z,40.69
2019-04-11T18:51:12.282Z,40.79
2019-04-11T18:52:19.622Z,40.79
2019-04-11T18:53:13.154Z,40.99
2019-04-11T18:54:12.064Z,40.99
2019-04-11T18:55:11.989Z,40.99
2019-04-11T18:56:11.935Z,40.59
2019-04-11T18:57:11.850Z,40.79
2019-04-11T18:58:11.793Z,40.69
2019-04-11T18:59:11.771Z,40.89
2019-04-11T19:00:11.698Z,40.69
2019-04-11T19:01:11.622Z,40.69
2019-04-11T19:02:11.547Z,40.79
2019-04-11T19:03:11.480Z,40.59
2019-04-11T19:04:12.126Z,40.89
2019-04-11T19:05:13.416Z,40.69
2019-04-11T19:06:13.123Z,40.59
2019-04-11T19:07:13.331Z,40.67
2019-04-11T19:08:13.238Z,40.99
2019-04-11T19:09:13.806Z,40.87
2019-04-11T19:10:14.586Z,40.77
2019-04-11T19:11:10.819Z,40.89
2019-04-11T19:12:10.756Z,40.79
2019-04-11T19:13:10.674Z,40.87
2019-04-11T19:14:10.579Z,40.77
2019-04-11T19:15:10.501Z,40.79
2019-04-11T19:16:10.446Z,40.77
2019-04-11T19:17:10.372Z,40.69
2019-04-11T19:18:10.290Z,40.67
2019-04-11T19:19:10.204Z,40.59
2019-04-11T19:20:10.132Z,40.77
2019-04-11T19:21:10.051Z,40.57
2019-04-11T19:22:09.969Z,40.77
2019-04-11T19:23:09.914Z,40.49
2019-04-11T19:24:12.819Z,40.69
2019-04-11T19:25:11.817Z,40.57
2019-04-11T19:26:09.667Z,40.77
2019-04-11T19:27:09.601Z,40.59
2019-04-11T19:28:09.565Z,40.67
2019-04-11T19:29:09.437Z,40.67
2019-04-11T19:30:09.356Z,40.69
2019-04-11T19:31:09.313Z,35.39
2019-04-11T19:32:09.211Z,37.90
2019-04-11T19:33:09.143Z,38.62
2019-04-11T19:34:09.123Z,39.01
2019-04-11T19:35:08.985Z,39.71
2019-04-11T19:36:10.128Z,39.91
2019-04-11T19:37:11.683Z,39.69
2019-04-11T19:38:12.032Z,39.79
2019-04-11T19:39:08.681Z,39.89
2019-04-11T19:40:10.066Z,39.69
2019-04-11T19:41:08.519Z,39.69
2019-04-11T19:42:09.279Z,39.09
2019-04-11T19:43:08.361Z,38.68
2019-04-11T19:44:08.304Z,39.18
2019-04-11T19:45:08.227Z,39.18
2019-04-11T19:46:08.134Z,39.49
2019-04-11T19:47:08.059Z,38.79
2019-04-11T19:48:07.984Z,38.99
2019-04-11T19:49:07.931Z,39.99
2019-04-11T19:50:07.837Z,39.59
2019-04-11T19:51:07.775Z,39.69
2019-04-11T19:52:07.683Z,39.89
2019-04-11T19:53:07.608Z,39.59
2019-04-11T19:54:07.759Z,39.89
2019-04-11T19:55:07.455Z,39.49
2019-04-11T19:56:07.378Z,39.91
2019-04-11T19:57:07.306Z,40.19
2019-04-11T19:58:07.228Z,40.19
2019-04-11T19:59:07.153Z,40.29
2019-04-11T20:00:07.099Z,40.29
2019-04-11T20:01:07.007Z,40.09
2019-04-11T20:02:06.926Z,40.01
2019-04-11T20:03:08.486Z,40.31
2019-04-11T20:04:06.795Z,40.49
2019-04-11T20:05:06.711Z,40.29
2019-04-11T20:06:06.623Z,40.21
2019-04-11T20:07:06.545Z,40.39
2019-04-11T20:08:06.473Z,40.39
2019-04-11T20:09:06.408Z,40.29
2019-04-11T20:10:06.339Z,40.41
2019-04-11T20:11:06.248Z,40.29
2019-04-11T20:12:06.164Z,40.39
2019-04-11T20:13:06.091Z,40.11
2019-04-11T20:14:07.886Z,40.29
2019-04-11T20:15:08.627Z,40.49
2019-04-11T20:16:05.858Z,40.09
2019-04-11T20:17:05.777Z,40.49
2019-04-11T20:18:05.731Z,40.71
2019-04-11T20:19:05.618Z,40.51
2019-04-11T20:20:07.197Z,41.21
2019-04-11T20:21:07.550Z,40.51
2019-04-11T20:22:08.353Z,40.81
2019-04-11T20:23:05.307Z,41.01
2019-04-11T20:24:05.218Z,41.11
2019-04-11T20:25:05.147Z,41.11
2019-04-11T20:26:05.053Z,41.21
2019-04-11T20:27:05.003Z,40.91
2019-04-11T20:28:04.918Z,40.91
2019-04-11T20:29:04.827Z,40.91
2019-04-11T20:30:04.757Z,40.51
2019-04-11T20:31:04.669Z,40.81
2019-04-11T20:32:04.598Z,40.51
2019-04-11T20:33:04.519Z,40.91
2019-04-11T20:34:07.157Z,40.71
2019-04-11T20:35:04.394Z,40.71
2019-04-11T20:36:04.314Z,40.71
2019-04-11T20:37:04.221Z,40.71
2019-04-11T20:38:04.151Z,40.51
2019-04-11T20:39:04.075Z,40.81
2019-04-11T20:40:04.000Z,41.51
2019-04-11T20:41:03.926Z,41.01
2019-04-11T20:42:03.852Z,40.81
2019-04-11T20:43:03.779Z,40.81
2019-04-11T20:44:03.704Z,40.81
2019-04-11T20:45:03.625Z,40.91
2019-04-11T20:46:03.559Z,40.81
2019-04-11T20:47:03.479Z,40.91
2019-04-11T20:48:03.433Z,40.71
2019-04-11T20:49:03.330Z,40.81
2019-04-11T20:50:07.676Z,40.91
2019-04-11T20:51:03.186Z,40.81
2019-04-11T20:52:03.110Z,40.63
2019-04-11T20:53:12.069Z,40.81
2019-04-11T20:54:06.954Z,40.71
2019-04-11T20:55:02.896Z,40.91
2019-04-11T20:56:02.832Z,41.03
2019-04-11T20:57:02.750Z,40.71
2019-04-11T20:58:02.673Z,40.73
2019-04-11T20:59:02.600Z,40.93
2019-04-11T21:00:02.598Z,40.71
2019-04-11T21:01:02.530Z,40.93
2019-04-11T21:02:02.505Z,40.83
2019-04-11T21:03:02.375Z,40.91
2019-04-11T21:04:04.706Z,40.61
2019-04-11T21:05:02.222Z,40.73
2019-04-11T21:06:02.561Z,41.03
2019-04-11T21:07:02.636Z,40.93
2019-04-11T21:08:03.068Z,40.93
2019-04-11T21:09:03.162Z,41.03
2019-04-11T21:10:04.165Z,40.93
2019-04-11T21:11:04.232Z,40.93
2019-04-11T21:12:01.749Z,40.93
2019-04-11T21:13:01.656Z,41.13
2019-04-11T21:14:01.580Z,40.83
2019-04-11T21:15:01.507Z,40.83
2019-04-11T21:16:01.434Z,40.73
